Horn Island Airport
YHID : now visible

Airfield :











YOU CAN JOIN US ON...

 
LOGIN :

Register | Disclaimer

   EN    FR    IT 

 









Legend :    VFR   Marginal VFR   IFR   Intensive IFR   Very Intensive IFR
Visi :
Ceiling :
>= 8 km
>= 3000ft
5 to 8 km
1000 to 3000 ft
1500m to 5 km
500 to 1000 ft
800 to 1500m
200 to 500 ft
< 800m
< 200 ft
Symbols :   Thunderstorms  Fog  Heavy snow  Heavy precipitations  Wind > 20 kt






- Airport Elevation : 43 ft
- IATA code : HID


YHID - Horn Island

CURRENT METAR :
  • 230230Z AUTO 06009KT 9999 // NCD 30/25 Q1009 RF00.0/000.0

EXPIRED METARs :
  • 230200Z AUTO 05009KT 030V090 9999 // SCT018 30/24 Q1010
  • 230130Z AUTO 05009KT 9999 // NCD 30/24 Q1010 RF00.0/000.0
  • 230100Z AUTO 08009KT 9999 // NCD 30/25 Q1010
  • 230030Z AUTO 08009KT 9999 // SCT015 30/25 Q1010 RF00.0/000.0
  • 230000Z AUTO 09010KT 9999 // SCT013 30/25 Q1011 RF00.0/000.0

TAF TAF YHID
Valid from the 23 at 00:00 until the 24 at 00:00 UTC


222305Z 2300/2400 08008KT 9999 SCT018
FM231200 12005KT 9999 -SHRA SCT015 INTER 2312/2400 2000 SHRA BKN010
PROB30
TEMPO 2312/2400 VRB20G30KT 1000 TSRA BKN005 SCT015CB
YBBB FIR / Oceania



MET'MAP, your aeronautical weather chart ! - Copyright ORBIFLY December 2007 - Disclaimer

ORBIFLY MET'MAP TEAM :

Programming & Development : Alexandra Zaïnal
Concept & original design : Baudouin d'Aumeries
Assistance for programming : Marc-Olivier Méhu
Technical & hardware support : Manuel Goepfert

Contact : metmap@orbifly.com




SOURCES & CREDITS :

   NOAA       Earth
Advisory